Time;durP1;ratioP1;P1;durP2;ratioP2;P2;SDS_P1;SDS_P2;PMS_P1;PMS_P2;Temp;Humidity;BMP_temperature;BMP_pressure;BME280_temperature;BME280_humidity;BME280_pressure;Samples;Min_cycle;Max_cycle;Signal;HPM_P1;HPM_P2
2021/03/12 00:00:33;;;;;;;;;4.00;3.00;;;;;10.16;40.14;97114.09;4699097;29;103561;-77
2021/03/12 00:03:00;;;;;;;;;5.00;4.00;;;;;10.15;40.38;97106.19;4695182;29;104011;-77
2021/03/12 00:05:26;;;;;;;;;5.00;4.00;;;;;10.12;40.33;97102.09;4701281;29;102719;-87
2021/03/12 00:07:54;;;;;;;;;3.00;2.50;;;;;10.15;40.15;97106.19;4678067;29;103005;-87
2021/03/12 00:10:23;;;;;;;;;3.25;3.25;;;;;10.14;40.08;97126.16;4674103;29;103039;-87
2021/03/12 00:12:50;;;;;;;;;3.00;3.00;;;;;10.14;40.37;97135.09;4696768;29;106928;-87
2021/03/12 00:15:21;;;;;;;;;3.25;3.00;;;;;10.12;40.16;97134.50;4697671;29;103335;-87
2021/03/12 00:17:49;;;;;;;;;4.75;3.00;;;;;10.13;40.65;97151.53;4682072;29;102994;-87
2021/03/12 00:20:18;;;;;;;;;3.75;3.00;;;;;10.14;40.37;97163.97;4684343;29;102817;-87
2021/03/12 00:22:44;;;;;;;;;4.00;3.00;;;;;10.13;40.56;97162.34;4686870;29;103944;-87
2021/03/12 00:25:13;;;;;;;;;4.00;3.00;;;;;10.13;40.24;97170.44;4691298;29;103025;-87
2021/03/12 00:27:40;;;;;;;;;4.25;3.25;;;;;10.13;40.22;97179.34;4694302;29;102756;-87
2021/03/12 00:30:08;;;;;;;;;5.25;4.25;;;;;10.15;40.45;97179.13;4695700;29;102712;-87
2021/03/12 00:32:35;;;;;;;;;4.00;4.00;;;;;10.16;40.53;97181.63;4680574;29;104556;-88
2021/03/12 00:35:04;;;;;;;;;0.25;0.25;;;;;10.17;40.60;97171.66;4702562;29;103671;-77
2021/03/12 00:37:30;;;;;;;;;4.00;4.00;;;;;10.18;40.55;97167.88;4681460;29;104949;-77
2021/03/12 00:39:57;;;;;;;;;3.25;3.25;;;;;10.19;40.38;97164.13;4699755;29;103058;-77
2021/03/12 00:42:24;;;;;;;;;5.00;3.00;;;;;10.19;40.53;97161.41;4700692;29;104612;-77
2021/03/12 00:44:50;;;;;;;;;3.00;3.00;;;;;10.20;40.43;97157.66;4696650;29;107608;-76
2021/03/12 00:47:17;;;;;;;;;3.75;1.25;;;;;10.20;40.39;97163.06;4695801;29;102996;-76
2021/03/12 00:49:44;;;;;;;;;3.50;3.50;;;;;10.20;40.38;97169.31;4693355;29;102943;-77
2021/03/12 00:52:11;;;;;;;;;3.50;3.50;;;;;10.20;40.34;97169.31;4694222;29;104681;-77
2021/03/12 00:54:37;;;;;;;;;3.00;2.75;;;;;10.21;40.08;97164.72;4699153;29;102788;-77
2021/03/12 00:57:05;;;;;;;;;3.00;3.00;;;;;10.22;40.81;97169.06;4697545;29;104572;-77
2021/03/12 00:59:32;;;;;;;;;4.00;3.50;;;;;10.23;40.56;97162.59;4700011;29;105504;-77
2021/03/12 01:01:59;;;;;;;;;3.25;3.00;;;;;10.22;40.81;97147.47;4663288;29;104460;-77
2021/03/12 01:04:26;;;;;;;;;3.50;3.00;;;;;10.21;40.25;97141.25;4668697;29;102967;-77
2021/03/12 01:06:52;;;;;;;;;3.00;3.00;;;;;10.22;40.46;97139.38;4679523;29;102838;-77
2021/03/12 01:09:20;;;;;;;;;3.00;3.00;;;;;10.22;40.58;97133.97;4675020;29;103169;-77
2021/03/12 01:11:49;;;;;;;;;3.00;2.25;;;;;10.22;40.27;97136.66;4685481;29;103931;-77
2021/03/12 01:14:20;;;;;;;;;4.25;3.00;;;;;10.21;40.36;97133.13;4697809;29;103883;-77
2021/03/12 01:16:49;;;;;;;;;2.50;2.50;;;;;10.21;40.39;97143.94;4711274;29;102737;-77
2021/03/12 01:19:19;;;;;;;;;4.75;2.75;;;;;10.21;40.43;97145.81;4697024;29;103614;-77
2021/03/12 01:21:47;;;;;;;;;5.00;3.00;;;;;10.20;40.55;97146.88;4684118;29;103841;-77
2021/03/12 01:24:18;;;;;;;;;4.00;3.50;;;;;10.19;40.41;97137.13;4696682;29;103055;-77
2021/03/12 01:26:46;;;;;;;;;3.25;3.25;;;;;10.20;40.64;97144.16;4699993;29;102771;-77
2021/03/12 01:29:17;;;;;;;;;2.50;2.00;;;;;10.18;40.69;97136.28;4702197;29;109148;-77
2021/03/12 01:31:45;;;;;;;;;2.00;2.00;;;;;10.19;40.41;97126.31;4696678;29;103247;-77
2021/03/12 01:36:58;;;;;;;;;3.75;3.00;;;;;10.18;40.56;97138.16;4844502;23;102303;-96
2021/03/12 01:39:27;;;;;;;;;4.00;3.00;;;;;10.12;40.69;97129.09;4810161;29;105629;-96
2021/03/12 01:41:57;;;;;;;;;3.25;2.25;;;;;10.16;40.54;97132.19;4792203;29;103345;-96
2021/03/12 01:44:24;;;;;;;;;3.00;3.00;;;;;10.12;40.22;97126.41;4793471;29;101878;-96
2021/03/12 01:46:51;;;;;;;;;3.00;3.00;;;;;10.08;40.20;97122.53;4812202;29;102146;-96
2021/03/12 01:49:18;;;;;;;;;3.00;2.25;;;;;10.09;40.73;97121.44;4793718;29;102273;-96
2021/03/12 01:51:46;;;;;;;;;3.75;3.00;;;;;10.11;40.45;97132.03;4812713;29;103085;-96
2021/03/12 01:54:12;;;;;;;;;2.75;2.00;;;;;10.06;40.64;97123.81;4796486;29;101833;-96
2021/03/12 01:56:39;;;;;;;;;4.00;3.00;;;;;10.08;40.80;97129.81;4792939;29;101822;-96
2021/03/12 01:59:06;;;;;;;;;3.50;3.50;;;;;10.08;40.90;97133.34;4797493;29;102179;-95
2021/03/12 02:01:33;;;;;;;;;4.00;3.00;;;;;10.10;40.62;97139.31;4812776;29;104067;-96
2021/03/12 02:04:00;;;;;;;;;2.75;2.00;;;;;10.12;40.28;97123.72;4776824;29;102186;-96
2021/03/12 02:06:26;;;;;;;;;4.25;3.75;;;;;10.14;40.46;97121.56;4778222;29;102227;-96
2021/03/12 02:08:53;;;;;;;;;4.75;3.00;;;;;10.16;40.29;97130.31;4807705;29;102228;-95
2021/03/12 02:11:22;;;;;;;;;3.00;2.75;;;;;10.12;40.90;97128.28;4804095;29;102882;-95
2021/03/12 02:13:56;;;;;;;;;2.00;2.00;;;;;10.18;40.93;97120.06;4792577;29;102233;-96
2021/03/12 02:16:53;;;;;;;;;3.00;2.75;;;;;10.20;40.75;97123.38;4808449;29;102062;-95
2021/03/12 02:19:38;;;;;;;;;3.00;3.00;;;;;10.20;40.62;97115.28;4722976;29;102196;-96
2021/03/12 02:22:08;;;;;;;;;3.50;3.00;;;;;10.18;40.63;97092.25;4809191;29;107812;-96
2021/03/12 02:24:53;;;;;;;;;2.00;2.00;;;;;10.18;40.79;97094.94;4795102;29;102127;-96
2021/03/12 02:27:24;;;;;;;;;3.00;2.50;;;;;10.22;40.57;97104.25;4795700;29;102145;-96
2021/03/12 02:29:57;;;;;;;;;2.75;2.75;;;;;10.17;40.74;97083.34;4794353;29;102241;-95
2021/03/12 02:32:33;;;;;;;;;2.75;2.00;;;;;10.21;40.79;97051.28;4768834;29;103046;-96
2021/03/12 02:35:08;;;;;;;;;1.75;1.25;;;;;10.17;40.57;97042.00;4792616;29;101962;-96
2021/03/12 02:37:38;;;;;;;;;2.00;2.00;;;;;10.23;40.37;97070.75;4806783;29;102066;-96
2021/03/12 02:40:08;;;;;;;;;2.00;2.00;;;;;10.21;40.74;97084.53;4790815;29;102229;-95
2021/03/12 02:42:40;;;;;;;;;1.00;1.00;;;;;10.21;40.79;97089.91;4776188;29;103097;-95
2021/03/12 02:45:10;;;;;;;;;2.00;2.00;;;;;10.23;40.69;97093.19;4793866;29;102101;-95
2021/03/12 02:47:39;;;;;;;;;2.00;2.00;;;;;10.23;40.70;97081.56;4802717;29;101704;-96
2021/03/12 02:50:07;;;;;;;;;2.25;2.00;;;;;10.21;40.69;97081.00;4791116;29;108210;-96
2021/03/12 02:52:34;;;;;;;;;3.75;3.00;;;;;10.21;40.81;97084.53;4804648;29;110221;-95
2021/03/12 02:55:02;;;;;;;;;2.25;2.25;;;;;10.19;41.03;97065.00;4787925;29;102180;-96
2021/03/12 02:57:29;;;;;;;;;3.00;2.00;;;;;10.17;40.93;97077.94;4787213;29;101951;-96
2021/03/12 02:59:56;;;;;;;;;2.00;2.00;;;;;10.22;40.81;97099.66;4807671;29;102127;-96
2021/03/12 03:02:29;;;;;;;;;4.25;2.75;;;;;10.21;40.48;97106.13;4790665;29;104217;-96
2021/03/12 03:04:57;;;;;;;;;4.75;2.00;;;;;10.17;40.34;97104.13;4776618;29;101998;-96
2021/03/12 03:07:24;;;;;;;;;2.00;2.00;;;;;10.21;41.28;97100.72;4791872;29;102117;-96
2021/03/12 03:09:51;;;;;;;;;2.75;1.75;;;;;10.16;40.65;97081.69;4791135;29;102172;-96
2021/03/12 03:12:19;;;;;;;;;3.00;2.75;;;;;10.14;40.88;97082.94;4791982;29;103051;-95
2021/03/12 03:14:55;;;;;;;;;3.25;2.75;;;;;10.17;40.84;97096.84;4794329;29;101806;-95
2021/03/12 03:17:22;;;;;;;;;2.00;2.00;;;;;10.18;40.79;97109.28;4802826;29;101832;-96
2021/03/12 03:19:49;;;;;;;;;4.25;3.00;;;;;10.14;41.17;97110.78;4779951;29;102235;-96
2021/03/12 03:22:17;;;;;;;;;2.00;2.00;;;;;10.15;41.11;97107.06;4790334;29;104296;-96
2021/03/12 03:24:44;;;;;;;;;2.75;2.00;;;;;10.15;41.16;97104.34;4803421;29;101722;-96
2021/03/12 03:27:11;;;;;;;;;2.00;2.00;;;;;10.17;40.66;97093.31;4789279;29;101755;-96
2021/03/12 03:29:38;;;;;;;;;2.00;2.00;;;;;10.11;40.97;97088.81;4792228;29;105198;-95
2021/03/12 03:32:06;;;;;;;;;3.25;3.00;;;;;10.17;41.05;97098.72;4809740;29;108772;-96
2021/03/12 03:34:33;;;;;;;;;2.75;2.00;;;;;10.14;40.98;97120.75;4806927;29;102232;-96
2021/03/12 03:37:00;;;;;;;;;1.50;1.00;;;;;10.14;40.92;97120.75;4793955;29;101871;-96
2021/03/12 03:39:27;;;;;;;;;1.00;1.00;;;;;10.17;41.06;97123.03;4805840;29;101966;-96
2021/03/12 03:41:55;;;;;;;;;4.50;3.25;;;;;10.12;41.17;97129.09;4790555;29;110564;-96
2021/03/12 03:44:26;;;;;;;;;3.00;3.00;;;;;10.15;40.87;97128.66;4802953;29;102062;-96
2021/03/12 03:46:55;;;;;;;;;3.50;3.00;;;;;10.15;40.79;97123.25;4801112;29;101754;-95
2021/03/12 03:49:22;;;;;;;;;3.25;3.00;;;;;10.14;40.60;97120.75;4808830;29;102158;-95
2021/03/12 03:51:49;;;;;;;;;3.00;2.75;;;;;10.12;41.13;97125.59;4772749;29;103112;-96
2021/03/12 03:54:16;;;;;;;;;2.50;2.25;;;;;10.12;41.37;97125.59;4793020;29;101694;-96
2021/03/12 03:56:44;;;;;;;;;2.00;2.00;;;;;10.15;40.89;97144.00;4811820;29;101791;-95
2021/03/12 03:59:11;;;;;;;;;3.00;1.75;;;;;10.17;41.23;97152.75;4814757;29;102215;-96
2021/03/12 04:01:38;;;;;;;;;1.50;1.25;;;;;10.19;40.76;97161.41;4799291;29;104765;-96
2021/03/12 04:04:06;;;;;;;;;2.00;1.00;;;;;10.21;41.05;97170.13;4780682;29;101786;-96
2021/03/12 04:06:34;;;;;;;;;2.75;2.00;;;;;10.15;41.00;97166.47;4812359;29;101737;-96
2021/03/12 04:09:01;;;;;;;;;1.00;1.00;;;;;10.19;41.11;97161.41;4814350;29;102159;-95
2021/03/12 04:11:28;;;;;;;;;3.00;2.00;;;;;10.26;41.10;97159.44;4794101;29;104041;-96
2021/03/12 04:13:56;;;;;;;;;2.00;1.50;;;;;10.26;40.78;97162.16;4797355;29;101877;-96
2021/03/12 04:16:22;;;;;;;;;1.00;1.00;;;;;10.25;41.11;97160.50;4797069;29;101723;-96
2021/03/12 04:18:49;;;;;;;;;2.00;1.75;;;;;10.33;40.98;97176.34;4796979;29;104340;-96
2021/03/12 04:21:16;;;;;;;;;2.75;2.00;;;;;10.31;40.98;97164.16;4794383;29;104070;-96
2021/03/12 04:23:43;;;;;;;;;2.00;1.50;;;;;10.39;40.87;97169.19;4797098;29;102143;-96
2021/03/12 04:26:10;;;;;;;;;1.00;0.75;;;;;10.35;40.50;97159.91;4796804;29;101612;-95
2021/03/12 04:28:37;;;;;;;;;2.00;2.00;;;;;10.39;40.77;97167.31;4796825;29;101867;-95
2021/03/12 04:31:03;;;;;;;;;2.50;2.00;;;;;10.43;41.03;97167.66;4809603;29;104094;-95
2021/03/12 04:33:30;;;;;;;;;1.50;1.50;;;;;10.39;40.74;97144.88;4795985;29;102136;-96
2021/03/12 04:35:57;;;;;;;;;2.00;2.00;;;;;10.44;40.86;97164.75;4772246;29;102127;-96
2021/03/12 04:38:24;;;;;;;;;2.00;2.00;;;;;10.45;40.99;97157.44;4780572;29;102181;-96
2021/03/12 04:40:51;;;;;;;;;2.00;2.00;;;;;10.43;41.41;97159.56;4792501;29;104030;-96
2021/03/12 04:43:17;;;;;;;;;1.00;1.00;;;;;10.44;41.14;97153.94;4807687;29;102113;-96
2021/03/12 04:45:44;;;;;;;;;1.75;1.50;;;;;10.47;40.98;97153.44;4806952;29;104769;-96
2021/03/12 04:48:11;;;;;;;;;2.00;1.75;;;;;10.43;40.73;97138.78;4793462;29;102197;-95
2021/03/12 04:50:43;;;;;;;;;1.75;1.00;;;;;10.49;40.98;97134.31;4792148;29;104305;-96
2021/03/12 04:53:09;;;;;;;;;1.75;1.75;;;;;10.47;41.07;97141.81;4778539;29;104582;-96
2021/03/12 04:55:36;;;;;;;;;1.75;1.25;;;;;10.47;40.90;97125.59;4794289;29;102139;-95
2021/03/12 04:58:03;;;;;;;;;1.75;1.25;;;;;10.40;40.73;97098.69;4809143;29;102179;-96
2021/03/12 05:00:31;;;;;;;;;1.75;1.75;;;;;10.43;41.01;97122.56;4783703;29;102935;-96
2021/03/12 05:02:58;;;;;;;;;1.25;1.00;;;;;10.47;41.10;97112.91;4792690;29;101855;-96
2021/03/12 05:05:25;;;;;;;;;2.00;2.00;;;;;10.47;41.11;97112.91;4794217;29;102097;-96
2021/03/12 05:07:53;;;;;;;;;1.75;1.75;;;;;10.46;40.88;97141.00;4777891;29;102237;-96
2021/03/12 05:10:20;;;;;;;;;1.00;1.00;;;;;10.42;40.58;97131.72;4806972;29;104075;-96
2021/03/12 05:12:47;;;;;;;;;3.00;2.00;;;;;10.46;40.87;97134.75;4805523;29;101635;-96
2021/03/12 05:15:29;;;;;;;;;1.00;1.00;;;;;10.46;40.88;97146.41;4793262;29;102170;-96
2021/03/12 05:17:56;;;;;;;;;2.00;2.00;;;;;10.42;40.69;97129.00;4807286;29;102224;-96
2021/03/12 05:20:24;;;;;;;;;2.50;1.50;;;;;10.43;41.00;97151.44;4785096;29;104284;-96
2021/03/12 05:22:51;;;;;;;;;1.25;1.00;;;;;10.48;40.65;97144.28;4790551;29;103954;-95
2021/03/12 05:25:18;;;;;;;;;2.25;1.00;;;;;10.42;41.18;97137.13;4790574;29;102133;-96
2021/03/12 05:27:44;;;;;;;;;4.00;1.00;;;;;10.46;40.96;97157.19;4788337;29;102190;-96
2021/03/12 05:30:11;;;;;;;;;1.75;1.75;;;;;10.46;40.69;97161.78;4788962;29;104045;-96
2021/03/12 05:32:40;;;;;;;;;2.75;2.00;;;;;10.46;41.59;97183.41;4787666;29;101998;-95
2021/03/12 05:35:07;;;;;;;;;3.00;2.00;;;;;10.41;41.18;97170.59;4792421;29;102114;-96
2021/03/12 05:37:34;;;;;;;;;2.50;1.75;;;;;10.38;40.98;97170.25;4789099;29;102197;-95
2021/03/12 05:40:05;;;;;;;;;2.50;2.50;;;;;10.44;40.91;97199.03;4791198;29;104103;-96
2021/03/12 05:42:31;;;;;;;;;3.00;1.75;;;;;10.40;41.24;97206.75;4789939;29;102071;-95
2021/03/12 05:44:58;;;;;;;;;1.00;1.00;;;;;10.39;41.26;97220.53;4789739;29;102150;-95
2021/03/12 05:47:25;;;;;;;;;2.25;1.75;;;;;10.44;41.27;97231.47;4803697;29;102176;-96
2021/03/12 05:49:54;;;;;;;;;2.75;2.75;;;;;10.42;41.47;97231.69;4788488;29;103176;-96
2021/03/12 05:52:21;;;;;;;;;2.00;2.00;;;;;10.42;41.21;97229.00;4791503;29;103645;-96
2021/03/12 05:54:48;;;;;;;;;1.50;1.50;;;;;10.41;40.83;97227.34;4769542;29;102157;-96
2021/03/12 05:57:16;;;;;;;;;3.00;2.00;;;;;10.37;41.28;97236.13;4790921;29;102611;-96
2021/03/12 05:59:43;;;;;;;;;2.00;2.00;;;;;10.41;40.95;97242.72;4790412;29;104136;-95
2021/03/12 06:02:09;;;;;;;;;1.50;1.50;;;;;10.39;41.17;97242.97;4806681;29;101905;-96
2021/03/12 06:04:36;;;;;;;;;2.00;1.00;;;;;10.40;41.63;97251.91;4804431;29;102101;-96
2021/03/12 06:07:03;;;;;;;;;2.00;2.00;;;;;10.36;41.28;97229.91;4777841;29;102184;-96
2021/03/12 06:09:30;;;;;;;;;1.00;1.00;;;;;10.39;40.80;97239.44;4803381;29;104054;-96
2021/03/12 06:11:57;;;;;;;;;4.00;2.25;;;;;10.38;41.15;97233.22;4791372;29;101991;-96
2021/03/12 06:14:59;;;;;;;;;2.00;2.00;;;;;10.35;41.42;97236.41;4804394;29;101708;-95
2021/03/12 06:17:32;;;;;;;;;2.75;2.00;;;;;10.38;41.26;97251.31;4673591;29;102151;-95
2021/03/12 06:20:00;;;;;;;;;2.50;2.00;;;;;10.34;41.10;97256.34;4782156;29;104119;-96
2021/03/12 06:22:28;;;;;;;;;0.00;0.00;;;;;10.35;41.28;97270.69;4791036;29;101670;-95
2021/03/12 06:24:59;;;;;;;;;2.00;2.00;;;;;10.34;41.02;97264.47;4802234;29;101734;-96
2021/03/12 06:27:30;;;;;;;;;1.00;1.00;;;;;10.32;41.20;97271.97;4802502;29;102223;-95
2021/03/12 06:29:58;;;;;;;;;3.00;2.25;;;;;10.34;41.04;97275.25;4773356;29;104096;-96
2021/03/12 06:32:51;;;;;;;;;2.00;2.00;;;;;10.28;41.64;97277.00;4796188;29;102093;-96
2021/03/12 06:35:20;;;;;;;;;3.00;2.00;;;;;10.30;40.86;97284.91;4735512;29;102142;-96
2021/03/12 06:37:50;;;;;;;;;1.00;1.00;;;;;10.31;41.17;97286.53;4791404;29;102197;-96
2021/03/12 06:40:21;;;;;;;;;2.75;2.75;;;;;10.33;41.51;97297.94;4785836;29;104680;-95
2021/03/12 06:43:07;;;;;;;;;1.00;1.00;;;;;10.29;41.46;97302.16;4796949;29;102110;-96
2021/03/12 06:45:56;;;;;;;;;2.75;2.00;;;;;10.29;41.16;97304.84;4804013;29;102000;-96
2021/03/12 06:48:25;;;;;;;;;2.00;2.00;;;;;10.27;41.24;97304.25;4688166;29;102353;-96
2021/03/12 06:50:58;;;;;;;;;1.50;1.00;;;;;10.32;41.27;97309.78;4768997;29;104033;-96
2021/03/12 06:53:28;;;;;;;;;3.00;2.00;;;;;10.28;41.15;97300.50;4763773;29;102158;-96
2021/03/12 06:56:02;;;;;;;;;2.00;2.00;;;;;10.28;41.29;97308.59;4807395;29;102226;-96
2021/03/12 06:58:29;;;;;;;;;3.00;1.75;;;;;10.29;41.40;97318.34;4790735;29;102131;-96
2021/03/12 07:00:56;;;;;;;;;1.50;1.50;;;;;10.25;41.40;97327.97;4788513;29;104240;-96
2021/03/12 07:03:36;;;;;;;;;2.25;2.25;;;;;10.25;41.66;97336.91;4775193;29;102190;-96
2021/03/12 07:06:05;;;;;;;;;1.75;1.75;;;;;10.29;40.94;97331.88;4805172;29;101820;-96
2021/03/12 07:08:33;;;;;;;;;0.50;0.00;;;;;10.28;41.61;97331.03;4778455;29;102202;-95
2021/03/12 07:11:01;;;;;;;;;2.25;1.50;;;;;10.29;41.34;97331.88;4789940;29;103089;-95
2021/03/12 07:13:28;;;;;;;;;1.50;1.25;;;;;10.25;41.19;97325.28;4788834;29;101679;-95
2021/03/12 07:16:01;;;;;;;;;2.50;2.00;;;;;10.26;41.16;97329.63;4784361;29;101958;-95
2021/03/12 07:22:19;;;;;;;;;2.00;1.00;;;;;10.29;41.45;97348.06;4803808;29;102328;-96
2021/03/12 07:24:45;;;;;;;;;1.00;1.00;;;;;10.23;41.19;97336.31;4804092;29;102154;-96
2021/03/12 07:27:13;;;;;;;;;2.50;2.50;;;;;10.25;41.39;97353.13;4806222;29;102018;-96
2021/03/12 07:29:40;;;;;;;;;2.00;1.50;;;;;10.24;41.38;97356.03;4793935;29;102160;-96
2021/03/12 07:32:06;;;;;;;;;1.00;1.00;;;;;10.28;41.60;97365.34;4801539;29;104051;-96
2021/03/12 07:34:34;;;;;;;;;2.00;2.00;;;;;10.21;41.50;97343.84;4788697;29;102127;-96
2021/03/12 07:37:02;;;;;;;;;3.00;1.50;;;;;10.24;41.31;97358.75;4788422;29;102176;-96
2021/03/12 07:39:37;;;;;;;;;1.50;1.00;;;;;10.29;41.37;97359.72;4794906;29;102080;-96
2021/03/12 07:42:04;;;;;;;;;1.00;1.00;;;;;10.33;41.29;97373.56;4793737;29;104311;-96
2021/03/12 07:44:44;;;;;;;;;1.25;1.25;;;;;10.29;41.65;97367.00;4797472;29;102091;-96
2021/03/12 07:47:24;;;;;;;;;2.50;2.00;;;;;10.38;41.45;97384.53;4722973;29;102229;-96
2021/03/12 07:49:53;;;;;;;;;2.00;1.00;;;;;10.43;41.28;97379.25;4797928;29;102185;-96
2021/03/12 07:52:49;;;;;;;;;2.00;1.00;;;;;10.48;41.49;97375.88;4794579;29;103977;-96
2021/03/12 07:55:35;;;;;;;;;1.00;1.00;;;;;10.51;41.59;97380.81;4807271;29;102034;-96
2021/03/12 07:58:06;;;;;;;;;1.00;1.00;;;;;10.52;41.41;97385.16;4809256;29;101739;-95
2021/03/12 08:00:51;;;;;;;;;2.25;1.25;;;;;10.59;41.20;97384.00;4791398;29;102267;-96
2021/03/12 08:03:28;;;;;;;;;1.50;1.00;;;;;10.61;41.56;97387.31;4759737;29;108494;-96
2021/03/12 08:05:55;;;;;;;;;2.00;2.00;;;;;10.60;41.31;97391.06;4807467;29;102148;-95
2021/03/12 08:08:32;;;;;;;;;2.00;1.00;;;;;10.67;41.02;97407.19;4777660;29;102133;-96
2021/03/12 08:11:22;;;;;;;;;2.25;2.00;;;;;10.69;41.11;97402.38;4784077;29;102124;-96
2021/03/12 08:13:49;;;;;;;;;2.50;1.25;;;;;10.67;41.27;97391.78;4699021;29;109060;-96
2021/03/12 08:16:16;;;;;;;;;1.25;1.25;;;;;10.72;41.20;97394.59;4777995;29;102141;-96
2021/03/12 08:18:44;;;;;;;;;1.00;1.00;;;;;10.74;41.49;97403.31;4784943;29;102398;-96
2021/03/12 08:21:35;;;;;;;;;3.25;1.50;;;;;10.77;41.25;97401.19;4794136;29;102178;-96
2021/03/12 08:24:02;;;;;;;;;1.25;1.00;;;;;10.78;41.37;97408.25;4701743;29;108809;-96
2021/03/12 08:26:49;;;;;;;;;1.00;1.00;;;;;10.79;41.27;97409.91;4810045;29;101688;-95
2021/03/12 08:29:36;;;;;;;;;1.50;1.50;;;;;10.80;41.54;97414.28;4803868;29;103178;-96
2021/03/12 08:32:22;;;;;;;;;1.50;1.50;;;;;10.75;41.00;97409.56;4794006;29;102042;-94
2021/03/12 08:34:51;;;;;;;;;1.75;1.00;;;;;10.81;41.23;97419.44;4750856;29;109023;-95
2021/03/12 08:37:28;;;;;;;;;1.25;1.25;;;;;10.81;41.23;97426.75;4780993;29;102331;-95
2021/03/12 08:40:18;;;;;;;;;2.00;2.00;;;;;10.82;41.08;97422.97;4812745;29;101528;-96
2021/03/12 08:43:04;;;;;;;;;1.75;1.00;;;;;10.82;40.92;97423.78;4802098;29;102120;-95
2021/03/12 08:45:45;;;;;;;;;1.25;1.25;;;;;10.79;41.31;97431.53;4810574;29;103289;-96
2021/03/12 08:48:13;;;;;;;;;1.00;1.00;;;;;10.82;41.42;97433.78;4796143;29;102051;-96
2021/03/12 08:50:53;;;;;;;;;1.75;1.00;;;;;10.76;41.37;97423.91;4811128;29;102066;-95
2021/03/12 08:53:22;;;;;;;;;1.00;1.00;;;;;10.83;41.38;97457.06;4715631;29;102304;-96
2021/03/12 08:55:52;;;;;;;;;1.00;1.00;;;;;10.78;41.18;97467.75;4796073;29;104205;-95
2021/03/12 08:58:27;;;;;;;;;1.25;1.25;;;;;10.76;40.76;97478.81;4795252;29;102097;-96
2021/03/12 09:01:00;;;;;;;;;2.00;1.00;;;;;10.81;41.34;97472.72;4795601;29;102060;-95
2021/03/12 09:03:29;;;;;;;;;2.00;1.00;;;;;10.77;41.01;97471.50;4813716;29;102153;-95
2021/03/12 09:06:10;;;;;;;;;1.00;1.00;;;;;10.78;41.45;97483.97;4794021;29;104278;-95
2021/03/12 09:08:38;;;;;;;;;1.00;1.00;;;;;10.81;41.13;97492.44;4794810;29;102065;-95
2021/03/12 09:11:06;;;;;;;;;1.25;1.25;;;;;10.80;41.90;97493.53;4795162;29;101941;-96
2021/03/12 09:13:36;;;;;;;;;2.50;1.00;;;;;10.75;41.34;97485.25;4813256;29;105334;-95
2021/03/12 09:16:04;;;;;;;;;1.75;1.25;;;;;10.81;41.41;97511.38;4795042;29;104556;-96
2021/03/12 09:18:37;;;;;;;;;1.75;1.75;;;;;10.78;41.16;97517.25;4797056;29;102104;-95
2021/03/12 09:21:10;;;;;;;;;1.00;1.00;;;;;10.76;41.08;97511.25;4810653;29;102148;-96
2021/03/12 09:23:44;;;;;;;;;1.00;1.00;;;;;10.76;40.78;97524.78;4781510;29;102254;-96
2021/03/12 09:26:18;;;;;;;;;0.50;0.50;;;;;10.78;41.53;97538.88;4792166;29;107556;-96
2021/03/12 09:28:46;;;;;;;;;0.75;0.75;;;;;10.78;41.17;97543.44;4765375;29;102121;-96
2021/03/12 09:31:14;;;;;;;;;1.00;1.00;;;;;10.74;41.58;97543.91;4812425;29;102184;-96
2021/03/12 09:33:46;;;;;;;;;1.00;0.75;;;;;10.77;41.34;97539.09;4796973;29;102214;-96
2021/03/12 09:36:46;;;;;;;;;1.00;1.00;;;;;10.72;41.54;97534.38;4794021;29;109095;-95
2021/03/12 09:39:21;;;;;;;;;1.00;1.00;;;;;10.77;41.48;97547.19;4731753;29;102170;-96
2021/03/12 09:42:08;;;;;;;;;3.00;1.00;;;;;10.74;41.40;97549.31;4805738;29;101763;-96
2021/03/12 09:44:35;;;;;;;;;1.50;1.00;;;;;10.72;41.58;97547.88;4796009;29;102207;-96
2021/03/12 09:47:07;;;;;;;;;1.50;1.25;;;;;10.76;41.65;97553.69;4806637;29;104037;-96
2021/03/12 09:49:42;;;;;;;;;1.25;0.75;;;;;10.73;41.30;97544.97;4788356;29;105055;-96
2021/03/12 09:52:13;;;;;;;;;2.00;2.00;;;;;10.72;41.69;97556.00;4806871;29;104420;-96
2021/03/12 09:54:41;;;;;;;;;1.00;1.00;;;;;10.73;41.31;97557.66;4811824;29;102137;-96
2021/03/12 09:57:09;;;;;;;;;2.25;2.00;;;;;10.74;41.49;97559.31;4810228;29;103795;-96
2021/03/12 09:59:37;;;;;;;;;2.00;1.00;;;;;10.73;41.59;97555.78;4810692;29;102082;-96
2021/03/12 10:02:20;;;;;;;;;0.25;0.25;;;;;10.77;41.53;97560.72;4712601;29;102855;-96
2021/03/12 10:04:55;;;;;;;;;1.00;1.00;;;;;10.76;41.61;97550.97;4793601;29;102193;-96
2021/03/12 10:07:39;;;;;;;;;1.75;1.00;;;;;10.76;41.76;97540.16;4809724;29;105734;-96
2021/03/12 10:10:27;;;;;;;;;2.75;2.00;;;;;10.80;41.39;97565.69;4795256;29;102110;-96
2021/03/12 10:12:58;;;;;;;;;1.75;1.75;;;;;10.78;41.47;97575.91;4699564;29;102176;-96
2021/03/12 10:15:37;;;;;;;;;2.00;2.00;;;;;10.77;41.44;97590.47;4811311;29;102129;-96
2021/03/12 10:18:05;;;;;;;;;1.00;1.00;;;;;10.73;41.22;97592.81;4779334;29;104200;-95
2021/03/12 10:20:35;;;;;;;;;1.50;1.00;;;;;10.75;41.40;97604.22;4793514;29;101808;-96
2021/03/12 10:23:07;;;;;;;;;1.00;1.00;;;;;10.74;41.63;97594.47;4785594;29;102169;-96
2021/03/12 10:25:35;;;;;;;;;2.00;1.00;;;;;10.77;41.69;97601.28;4783298;29;102167;-96
2021/03/12 10:28:11;;;;;;;;;1.25;0.75;;;;;10.76;41.61;97602.34;4791759;29;103055;-95
2021/03/12 10:30:45;;;;;;;;;2.00;1.00;;;;;10.72;41.60;97608.19;4807032;29;102060;-96
2021/03/12 10:33:18;;;;;;;;;1.00;1.00;;;;;10.73;41.59;97612.56;4778521;29;102108;-95
2021/03/12 10:35:49;;;;;;;;;1.00;1.00;;;;;10.74;41.68;97610.69;4807915;29;102093;-96
2021/03/12 10:38:21;;;;;;;;;1.25;1.00;;;;;10.69;41.61;97616.78;4787796;29;103797;-96
2021/03/12 10:41:00;;;;;;;;;1.00;1.00;;;;;10.73;41.67;97615.25;4773506;29;102131;-95
2021/03/12 10:43:30;;;;;;;;;2.00;1.00;;;;;10.69;41.69;97611.34;4787600;29;101883;-96
2021/03/12 10:46:04;;;;;;;;;1.00;1.00;;;;;10.69;41.94;97610.53;4792131;29;102168;-95
2021/03/12 10:48:40;;;;;;;;;1.00;1.00;;;;;10.69;41.42;97616.78;4791756;29;102894;-96
2021/03/12 10:51:11;;;;;;;;;2.00;2.00;;;;;10.70;41.65;97621.13;4789917;29;101926;-95
2021/03/12 10:53:45;;;;;;;;;2.25;2.00;;;;;10.68;41.71;97598.88;4806277;29;101782;-96
2021/03/12 10:56:12;;;;;;;;;0.25;0.25;;;;;10.69;41.42;97615.94;4791852;29;101992;-96
2021/03/12 10:58:38;;;;;;;;;1.00;1.00;;;;;10.64;41.26;97635.53;4789620;29;104390;-95
2021/03/12 11:01:13;;;;;;;;;1.00;1.00;;;;;10.69;41.77;97621.34;4802700;29;102093;-96
2021/03/12 11:03:42;;;;;;;;;2.75;1.00;;;;;10.70;41.71;97612.19;4807427;29;102179;-96
2021/03/12 11:06:11;;;;;;;;;1.00;1.00;;;;;10.69;41.81;97611.34;4777295;29;102339;-96
2021/03/12 11:08:43;;;;;;;;;2.00;1.00;;;;;10.71;41.65;97613.84;4804583;29;109935;-95
2021/03/12 11:11:17;;;;;;;;;1.25;1.00;;;;;10.72;41.62;97610.91;4805048;29;101920;-96
2021/03/12 11:13:44;;;;;;;;;1.00;1.00;;;;;10.70;41.64;97604.91;4791112;29;102149;-96
2021/03/12 11:16:11;;;;;;;;;2.25;1.00;;;;;10.70;41.69;97599.50;4783986;29;102228;-96
2021/03/12 11:18:39;;;;;;;;;1.75;1.00;;;;;10.75;41.63;97620.44;4770447;29;104763;-96
2021/03/12 11:21:08;;;;;;;;;1.00;1.00;;;;;10.70;41.80;97602.22;4780086;29;102122;-96
2021/03/12 11:23:34;;;;;;;;;1.00;1.00;;;;;10.76;41.76;97621.28;4760784;29;102226;-95
2021/03/12 11:26:01;;;;;;;;;1.00;1.00;;;;;10.71;41.81;97624.66;4788970;29;102262;-95
2021/03/12 11:28:30;;;;;;;;;1.75;1.00;;;;;10.73;41.82;97623.38;4791087;29;105171;-95
2021/03/12 11:30:57;;;;;;;;;1.00;1.00;;;;;10.74;42.19;97625.03;4806256;29;102116;-96
2021/03/12 11:33:24;;;;;;;;;1.50;1.00;;;;;10.72;41.77;97619.00;4790292;29;102050;-96
2021/03/12 11:35:52;;;;;;;;;0.50;0.50;;;;;10.74;41.42;97630.44;4790698;29;102228;-96
2021/03/12 11:38:33;;;;;;;;;0.00;0.00;;;;;10.71;41.99;97611.97;4789283;29;104333;-96
2021/03/12 11:41:00;;;;;;;;;0.00;0.00;;;;;10.72;41.75;97608.19;4789871;29;102177;-96
2021/03/12 11:43:27;;;;;;;;;1.25;1.25;;;;;10.77;41.57;97626.44;4789627;29;101886;-96
2021/03/12 11:45:54;;;;;;;;;1.00;1.00;;;;;10.75;41.84;97628.56;4788769;29;102290;-96